Time,TemperatureF,DewpointF,PressureIn,WindDirection,WindDirectionDegrees,WindSpeedMPH,WindSpeedGustMPH,Humidity,HourlyPrecipIn,Conditions,Clouds,dailyrainin,SoftwareType,DateUTC
2013-04-16 00:02:00,36.0,28.0,29.67,NNW,346,16.0,38.0,73,0.00,,,0.00,,2013-04-16 07:02:00,
2013-04-16 00:11:00,36.0,28.0,29.67,NNW,346,16.0,38.0,73,0.00,,,0.00,,2013-04-16 07:11:00,
2013-04-16 00:32:00,34.0,26.0,29.70,NNW,331,13.0,32.0,71,0.00,,,0.00,,2013-04-16 07:32:00,
2013-04-16 00:42:00,34.0,26.0,29.70,NNW,331,13.0,32.0,71,0.00,,,0.00,,2013-04-16 07:42:00,
2013-04-16 00:53:00,34.0,26.0,29.70,NNW,331,13.0,32.0,71,0.00,,,0.00,,2013-04-16 07:53:00,
2013-04-16 01:02:00,34.0,26.0,29.70,NNW,331,13.0,32.0,71,0.00,,,0.00,,2013-04-16 08:02:00,
2013-04-16 01:11:00,34.0,26.0,29.70,NNW,331,13.0,32.0,71,0.00,,,0.00,,2013-04-16 08:11:00,
2013-04-16 02:33:00,31.0,24.0,29.70,North,355,17.0,35.0,74,0.00,,,0.00,,2013-04-16 09:33:00,
2013-04-16 02:43:00,31.0,24.0,29.70,North,355,17.0,35.0,74,0.00,,,0.00,,2013-04-16 09:43:00,
2013-04-16 02:53:00,30.0,23.0,29.70,North,351,11.0,26.0,75,0.00,,,0.00,,2013-04-16 09:53:00,
2013-04-16 03:03:00,30.0,22.0,29.70,NNE,17,10.0,25.0,71,0.00,,,0.00,,2013-04-16 10:03:00,
2013-04-16 03:12:00,30.0,22.0,29.70,NNE,17,10.0,25.0,71,0.00,,,0.00,,2013-04-16 10:12:00,
2013-04-16 03:22:00,30.0,22.0,29.70,NNE,17,10.0,25.0,71,0.00,,,0.00,,2013-04-16 10:22:00,
2013-04-16 03:32:00,29.0,20.0,29.71,North,11,18.0,38.0,70,0.00,,,0.00,,2013-04-16 10:32:00,
2013-04-16 03:42:00,29.0,20.0,29.71,North,11,18.0,38.0,70,0.00,,,0.00,,2013-04-16 10:42:00,
2013-04-16 03:52:00,29.0,20.0,29.71,NW,317,7.0,35.0,70,0.00,,,0.00,,2013-04-16 10:52:00,
2013-04-16 04:02:00,30.0,22.0,29.71,ENE,61,9.0,30.0,71,0.00,,,0.00,,2013-04-16 11:02:00,
2013-04-16 04:12:00,30.0,22.0,29.71,ENE,61,9.0,30.0,71,0.00,,,0.00,,2013-04-16 11:12:00,
2013-04-16 04:21:00,30.0,22.0,29.71,NNW,344,11.0,28.0,72,0.00,,,0.00,,2013-04-16 11:21:00,
2013-04-16 04:31:00,30.0,22.0,29.71,NNW,344,11.0,28.0,72,0.00,,,0.00,,2013-04-16 11:31:00,
2013-04-16 04:41:00,30.0,22.0,29.71,NNW,344,11.0,28.0,72,0.00,,,0.00,,2013-04-16 11:41:00,
2013-04-16 04:52:00,30.0,23.0,29.71,NW,325,8.0,20.0,75,0.00,,,0.00,,2013-04-16 11:52:00,
2013-04-16 05:02:00,30.0,23.0,29.71,NW,325,8.0,20.0,75,0.00,,,0.00,,2013-04-16 12:02:00,
2013-04-16 05:12:00,30.0,23.0,29.71,NW,325,8.0,20.0,75,0.00,,,0.00,,2013-04-16 12:12:00,
2013-04-16 05:21:00,30.0,24.0,29.70,NNW,339,9.0,27.0,77,0.00,,,0.00,,2013-04-16 12:21:00,
2013-04-16 05:32:00,30.0,23.0,29.70,North,355,14.0,30.0,74,0.00,,,0.00,,2013-04-16 12:32:00,
2013-04-16 05:42:00,30.0,23.0,29.70,North,355,14.0,30.0,74,0.00,,,0.00,,2013-04-16 12:42:00,
2013-04-16 05:52:00,31.0,24.0,29.69,NNW,340,14.0,33.0,76,0.00,,,0.00,,2013-04-16 12:52:00,
2013-04-16 06:01:00,30.0,23.0,29.69,North,360,12.0,38.0,76,0.00,,,0.00,,2013-04-16 13:01:00,
2013-04-16 06:11:00,30.0,23.0,29.69,North,360,12.0,38.0,76,0.00,,,0.00,,2013-04-16 13:11:00,
2013-04-16 06:22:00,30.0,23.0,29.69,North,360,12.0,38.0,76,0.00,,,0.00,,2013-04-16 13:22:00,
2013-04-16 06:32:00,30.0,23.0,29.69,North,360,12.0,38.0,76,0.00,,,0.00,,2013-04-16 13:32:00,
2013-04-16 06:42:00,30.0,23.0,29.69,North,360,12.0,38.0,76,0.00,,,0.00,,2013-04-16 13:42:00,
2013-04-16 07:22:00,30.0,25.0,29.69,North,9,9.0,24.0,83,0.00,,,0.00,,2013-04-16 14:22:00,
2013-04-16 07:32:00,31.0,26.0,29.71,North,360,12.0,23.0,83,0.00,,,0.00,,2013-04-16 14:32:00,
2013-04-16 07:42:00,31.0,26.0,29.71,North,360,12.0,23.0,83,0.00,,,0.00,,2013-04-16 14:42:00,
2013-04-16 07:51:00,31.0,26.0,29.71,North,360,12.0,23.0,83,0.00,,,0.00,,2013-04-16 14:51:00,
2013-04-16 08:02:00,31.0,26.0,29.71,North,360,12.0,23.0,83,0.00,,,0.00,,2013-04-16 15:02:00,
2013-04-16 08:22:00,30.0,27.0,29.72,North,351,15.0,43.0,88,0.00,,,0.00,,2013-04-16 15:22:00,
2013-04-16 08:33:00,30.0,27.0,29.72,North,351,15.0,43.0,88,0.00,,,0.00,,2013-04-16 15:33:00,
2013-04-16 08:43:00,30.0,27.0,29.72,North,351,15.0,43.0,88,0.00,,,0.00,,2013-04-16 15:43:00,
2013-04-16 08:53:00,30.0,27.0,29.72,North,351,15.0,43.0,88,0.00,,,0.00,,2013-04-16 15:53:00,
2013-04-16 09:03:00,30.0,27.0,29.75,North,360,17.0,37.0,87,0.00,,,0.00,,2013-04-16 16:03:00,
2013-04-16 09:13:00,30.0,27.0,29.75,North,360,17.0,37.0,87,0.00,,,0.00,,2013-04-16 16:13:00,
2013-04-16 09:23:00,30.0,27.0,29.75,North,360,17.0,37.0,87,0.00,,,0.00,,2013-04-16 16:23:00,
2013-04-16 09:32:00,30.0,27.0,29.76,North,360,12.0,40.0,89,0.00,,,0.00,,2013-04-16 16:32:00,
2013-04-16 09:41:00,30.0,27.0,29.76,North,360,12.0,40.0,89,0.00,,,0.00,,2013-04-16 16:41:00,
2013-04-16 09:51:00,30.0,27.0,29.78,North,351,12.0,30.0,89,0.00,,,0.00,,2013-04-16 16:51:00,
2013-04-16 09:52:00,30.0,27.0,29.76,North,360,12.0,38.0,89,0.00,,,0.00,,2013-04-16 16:52:00,
2013-04-16 10:02:00,30.0,27.0,29.77,NNW,343,16.0,36.0,88,0.00,,,0.00,,2013-04-16 17:02:00,
2013-04-16 10:11:00,30.0,27.0,29.77,NNW,343,16.0,36.0,88,0.00,,,0.00,,2013-04-16 17:11:00,
2013-04-16 10:22:00,30.0,27.0,29.78,North,351,12.0,30.0,89,0.00,,,0.00,,2013-04-16 17:22:00,
2013-04-16 10:32:00,30.0,27.0,29.78,North,351,12.0,30.0,89,0.00,,,0.00,,2013-04-16 17:32:00,
2013-04-16 10:43:00,30.0,27.0,29.78,North,351,12.0,30.0,89,0.00,,,0.00,,2013-04-16 17:43:00,
2013-04-16 11:12:00,31.0,28.0,29.82,ENE,62,12.0,36.0,87,0.00,,,0.00,,2013-04-16 18:12:00,
2013-04-16 11:22:00,31.0,28.0,29.82,ENE,62,12.0,36.0,87,0.00,,,0.00,,2013-04-16 18:22:00,
2013-04-16 11:32:00,32.0,28.0,29.82,NE,46,11.0,23.0,85,0.00,,,0.00,,2013-04-16 18:32:00,
2013-04-16 11:42:00,32.0,28.0,29.82,NE,46,11.0,23.0,85,0.00,,,0.00,,2013-04-16 18:42:00,
2013-04-16 11:52:00,32.0,28.0,29.82,NE,46,11.0,23.0,85,0.00,,,0.00,,2013-04-16 18:52:00,
2013-04-16 12:02:00,33.0,28.0,29.83,North,355,13.0,33.0,81,0.00,,,0.00,,2013-04-16 19:02:00,
2013-04-16 12:11:00,33.0,28.0,29.83,North,355,13.0,33.0,81,0.00,,,0.00,,2013-04-16 19:11:00,
2013-04-16 12:22:00,33.0,28.0,29.83,WSW,256,4.0,21.0,81,0.00,,,0.00,,2013-04-16 19:22:00,
2013-04-16 12:32:00,34.0,28.0,29.83,North,360,14.0,31.0,78,0.00,,,0.00,,2013-04-16 19:32:00,
2013-04-16 12:41:00,34.0,28.0,29.83,North,360,14.0,31.0,78,0.00,,,0.00,,2013-04-16 19:41:00,
2013-04-16 12:52:00,34.0,28.0,29.82,NE,42,12.0,29.0,79,0.00,,,0.00,,2013-04-16 19:52:00,
2013-04-16 13:02:00,34.0,28.0,29.82,NNW,327,15.0,30.0,80,0.00,,,0.00,,2013-04-16 20:02:00,
2013-04-16 13:11:00,34.0,28.0,29.82,NNW,327,15.0,30.0,80,0.00,,,0.00,,2013-04-16 20:11:00,
2013-04-16 13:21:00,34.0,28.0,29.82,NNW,327,15.0,30.0,80,0.00,,,0.00,,2013-04-16 20:21:00,
2013-04-16 13:31:00,35.0,29.0,29.83,North,349,5.0,17.0,79,0.00,,,0.00,,2013-04-16 20:31:00,
2013-04-16 13:42:00,35.0,29.0,29.83,North,349,5.0,17.0,79,0.00,,,0.00,,2013-04-16 20:42:00,
2013-04-16 13:52:00,35.0,29.0,29.83,North,349,5.0,17.0,79,0.00,,,0.00,,2013-04-16 20:52:00,
2013-04-16 14:33:00,37.0,29.0,29.82,North,360,12.0,24.0,74,0.00,,,0.00,,2013-04-16 21:33:00,
2013-04-16 14:43:00,37.0,29.0,29.82,North,360,12.0,24.0,74,0.00,,,0.00,,2013-04-16 21:43:00,
2013-04-16 14:53:00,38.0,29.0,29.83,North,9,7.0,22.0,70,0.00,,,0.00,,2013-04-16 21:53:00,
2013-04-16 15:02:00,38.0,29.0,29.82,NNE,26,13.0,33.0,70,0.00,,,0.00,,2013-04-16 22:02:00,
2013-04-16 15:12:00,38.0,29.0,29.82,NNE,26,13.0,33.0,70,0.00,,,0.00,,2013-04-16 22:12:00,
2013-04-16 15:22:00,39.0,29.0,29.82,West,278,9.0,31.0,67,0.00,,,0.00,,2013-04-16 22:22:00,
2013-04-16 15:32:00,39.0,29.0,29.83,North,355,6.0,34.0,68,0.00,,,0.00,,2013-04-16 22:32:00,
2013-04-16 15:42:00,39.0,29.0,29.83,North,355,6.0,34.0,68,0.00,,,0.00,,2013-04-16 22:42:00,
2013-04-16 15:52:00,40.0,29.0,29.82,NW,321,4.0,33.0,64,0.00,,,0.00,,2013-04-16 22:52:00,
2013-04-16 16:02:00,41.0,29.0,29.82,NNW,342,6.0,24.0,62,0.00,,,0.00,,2013-04-16 23:02:00,
2013-04-16 16:12:00,41.0,29.0,29.82,NNW,342,6.0,24.0,62,0.00,,,0.00,,2013-04-16 23:12:00,
2013-04-16 16:21:00,41.0,28.0,29.82,North,5,14.0,38.0,60,0.00,,,0.00,,2013-04-16 23:21:00,
2013-04-16 16:31:00,42.0,28.0,29.83,North,5,15.0,32.0,57,0.00,,,0.00,,2013-04-16 23:31:00,
2013-04-16 16:42:00,42.0,28.0,29.83,North,5,15.0,32.0,57,0.00,,,0.00,,2013-04-16 23:42:00,
2013-04-16 16:52:00,41.0,27.0,29.82,NW,319,9.0,26.0,58,0.00,,,0.00,,2013-04-16 23:52:00,
2013-04-16 17:01:00,42.0,27.0,29.82,North,360,12.0,33.0,55,0.00,,,0.00,,2013-04-17 00:01:00,
2013-04-16 17:12:00,42.0,27.0,29.82,North,360,12.0,33.0,55,0.00,,,0.00,,2013-04-17 00:12:00,
2013-04-16 17:22:00,42.0,27.0,29.82,North,360,12.0,33.0,55,0.00,,,0.00,,2013-04-17 00:22:00,
2013-04-16 17:32:00,42.0,27.0,29.82,North,360,12.0,33.0,55,0.00,,,0.00,,2013-04-17 00:32:00,
2013-04-16 17:42:00,42.0,27.0,29.82,North,360,12.0,33.0,55,0.00,,,0.00,,2013-04-17 00:42:00,
2013-04-16 17:52:00,42.0,26.0,29.80,SSE,160,7.0,34.0,53,0.00,,,0.00,,2013-04-17 00:52:00,
2013-04-16 18:02:00,42.0,26.0,29.80,SSE,160,7.0,34.0,53,0.00,,,0.00,,2013-04-17 01:02:00,
2013-04-16 18:12:00,42.0,26.0,29.80,SSE,160,7.0,34.0,53,0.00,,,0.00,,2013-04-17 01:12:00,
2013-04-16 18:21:00,42.0,25.0,29.80,North,360,10.0,36.0,51,0.00,,,0.00,,2013-04-17 01:21:00,
2013-04-16 18:32:00,41.0,25.0,29.80,North,360,10.0,27.0,52,0.00,,,0.00,,2013-04-17 01:32:00,
2013-04-16 18:42:00,41.0,25.0,29.80,North,360,10.0,27.0,52,0.00,,,0.00,,2013-04-17 01:42:00,
2013-04-16 18:52:00,41.0,26.0,29.81,NNE,24,7.0,24.0,54,0.00,,,0.00,,2013-04-17 01:52:00,
2013-04-16 19:11:00,41.0,25.0,29.81,NW,324,12.0,34.0,53,0.00,,,0.00,,2013-04-17 02:11:00,
2013-04-16 19:21:00,41.0,26.0,29.81,ESE,108,14.0,37.0,54,0.00,,,0.00,,2013-04-17 02:21:00,
2013-04-16 19:32:00,41.0,26.0,29.81,ESE,108,14.0,37.0,54,0.00,,,0.00,,2013-04-17 02:32:00,
2013-04-16 19:42:00,41.0,26.0,29.81,ESE,108,14.0,37.0,54,0.00,,,0.00,,2013-04-17 02:42:00,
2013-04-16 19:52:00,41.0,26.0,29.81,ESE,108,14.0,37.0,54,0.00,,,0.00,,2013-04-17 02:52:00,
2013-04-16 20:22:00,40.0,24.0,29.83,West,273,14.0,35.0,53,0.00,,,0.00,,2013-04-17 03:22:00,
2013-04-16 20:32:00,40.0,22.0,29.83,ENE,73,12.0,28.0,48,0.00,,,0.00,,2013-04-17 03:32:00,
2013-04-16 20:42:00,40.0,22.0,29.83,ENE,73,12.0,28.0,48,0.00,,,0.00,,2013-04-17 03:42:00,
2013-04-16 20:53:00,40.0,22.0,29.84,NW,323,13.0,32.0,49,0.00,,,0.00,,2013-04-17 03:53:00,
2013-04-16 21:02:00,40.0,21.0,29.85,North,355,10.0,32.0,46,0.00,,,0.00,,2013-04-17 04:02:00,
2013-04-16 21:12:00,40.0,21.0,29.85,North,355,10.0,32.0,46,0.00,,,0.00,,2013-04-17 04:12:00,
2013-04-16 21:22:00,40.0,22.0,29.86,North,355,13.0,25.0,49,0.00,,,0.00,,2013-04-17 04:22:00,
2013-04-16 21:32:00,40.0,24.0,29.87,North,5,11.0,25.0,52,0.00,,,0.00,,2013-04-17 04:32:00,
2013-04-16 21:42:00,40.0,24.0,29.87,North,5,11.0,25.0,52,0.00,,,0.00,,2013-04-17 04:42:00,
2013-04-16 21:52:00,40.0,24.0,29.87,NNW,335,13.0,27.0,52,0.00,,,0.00,,2013-04-17 04:52:00,
2013-04-16 22:02:00,40.0,23.0,29.88,North,350,9.0,24.0,51,0.00,,,0.00,,2013-04-17 05:02:00,
2013-04-16 22:11:00,40.0,23.0,29.88,North,350,9.0,24.0,51,0.00,,,0.00,,2013-04-17 05:11:00,
2013-04-16 22:21:00,39.0,22.0,29.88,North,355,7.0,23.0,51,0.00,,,0.00,,2013-04-17 05:21:00,
2013-04-16 22:32:00,39.0,22.0,29.88,NNW,348,8.0,23.0,51,0.00,,,0.00,,2013-04-17 05:32:00,
2013-04-16 22:42:00,39.0,22.0,29.88,NNW,348,8.0,23.0,51,0.00,,,0.00,,2013-04-17 05:42:00,
2013-04-16 22:52:00,39.0,22.0,29.88,NNW,348,8.0,23.0,51,0.00,,,0.00,,2013-04-17 05:52:00,
2013-04-16 23:01:00,39.0,22.0,29.88,NNW,348,8.0,23.0,51,0.00,,,0.00,,2013-04-17 06:01:00,
2013-04-16 23:22:00,39.0,24.0,29.89,North,350,12.0,23.0,55,0.00,,,0.00,,2013-04-17 06:22:00,
2013-04-16 23:32:00,39.0,25.0,29.89,North,5,7.0,23.0,56,0.00,,,0.00,,2013-04-17 06:32:00,
2013-04-16 23:42:00,39.0,25.0,29.89,North,5,7.0,23.0,56,0.00,,,0.00,,2013-04-17 06:42:00,
2013-04-16 23:51:00,39.0,25.0,29.89,North,360,12.0,33.0,57,0.00,,,0.00,,2013-04-17 06:51:00,